»·PEaware :: DIHNF KSLC-KDTA

DIHNF :: KSLC-KDTA

FLIGHT INFORMATION

Flight Status: Arrived
Operator: Unknown
More flights by this operator :: More flights under this callsign
Pilot: Klaus A. (15485)
Aircraft: BEECH AIRCRAFT BARON
(BE58)
More flights by this aircraft type
Origin: KSLC Salt Lake City Intl
United States
Destination: KDTA Delta Mun
United States
More flights between these airports :: More routes between these airports
Route: +SLC4 TCH V21 DTA
File this flight plan on PilotEdge
Remarks: Custom weather IFR
Altitude:
(Current/Filed)
12,000ft
Speed:
(Current/Filed)
170kts
Departed: 07-Nov-19 10:09 AM
Arrived: 07-Nov-19 10:53 AM
Distance/Time
Traveled:
88nm/0:44
Distance/Time
To Go:
Arrived

Flight Plot

Page will automatically refresh every two minutes.

Flight plan parsing failed; only flown route is shown


Map Options




Map Legend


Flown Route
Filed Route
Departure Airport
Arrival Airport
Navaid (VOR, NDB)
Fix

Horizontal Profiles

Position Reports

Time Latitude Longitude Heading Altitude Ground
Speed
07-Nov-19 09:42 40.779249 -111.958531 87 4231ft 0kts
07-Nov-19 09:43 40.779249 -111.958531 87 4231ft 0kts
07-Nov-19 09:44 40.779249 -111.958531 87 4231ft 0kts
07-Nov-19 09:45 40.779249 -111.958531 87 4231ft 0kts
07-Nov-19 09:46 40.779249 -111.958531 87 4231ft 0kts
07-Nov-19 09:47 40.779249 -111.958531 87 4231ft 0kts
07-Nov-19 09:48 40.779249 -111.958531 87 4231ft 0kts
07-Nov-19 09:49 40.779249 -111.958531 87 4231ft 0kts
07-Nov-19 09:50 40.779249 -111.958531 87 4231ft 0kts
07-Nov-19 09:51 40.779249 -111.958531 87 4231ft 0kts
07-Nov-19 09:52 40.779249 -111.958531 87 4231ft 0kts
07-Nov-19 09:53 40.779249 -111.958531 87 4231ft 0kts
07-Nov-19 09:54 40.779249 -111.958531 87 4231ft 0kts
07-Nov-19 09:55 40.779249 -111.958531 87 4231ft 0kts
07-Nov-19 09:56 40.779249 -111.958531 87 4231ft 0kts
07-Nov-19 09:57 40.779249 -111.958531 87 4231ft 0kts
07-Nov-19 09:58 40.779249 -111.958525 86 4231ft 0kts
07-Nov-19 09:59 40.780017 -111.960022 1 4231ft 8kts
07-Nov-19 10:00 40.782144 -111.960022 0 4231ft 9kts
07-Nov-19 10:01 40.786764 -111.960017 1 4231ft 21kts
07-Nov-19 10:02 40.792966 -111.960016 359 4231ft 20kts
07-Nov-19 10:03 40.798453 -111.960025 353 4231ft 15kts
07-Nov-19 10:04 40.798857 -111.960469 277 4231ft 0kts
07-Nov-19 10:05 40.798857 -111.960468 276 4231ft 0kts
07-Nov-19 10:06 40.798857 -111.960468 276 4231ft 0kts
07-Nov-19 10:07 40.798857 -111.960468 276 4231ft 0kts
07-Nov-19 10:08 40.787828 -111.962125 176 4270ft 119kts
07-Nov-19 10:09 40.751131 -111.960417 169 5537ft 134kts
07-Nov-19 10:10 40.712703 -111.957553 172 6575ft 141kts
07-Nov-19 10:11 40.674707 -111.951412 161 7619ft 141kts
07-Nov-19 10:12 40.635477 -111.949750 176 8578ft 142kts
07-Nov-19 10:13 40.595121 -111.955092 183 9396ft 147kts
07-Nov-19 10:14 40.554587 -111.962913 177 10314ft 144kts
07-Nov-19 10:15 40.513805 -111.960903 174 10978ft 155kts
07-Nov-19 10:16 40.465953 -111.958217 173 10999ft 183kts
07-Nov-19 10:17 40.413864 -111.955114 174 11041ft 186kts
07-Nov-19 10:18 40.364238 -111.952156 173 11492ft 174kts
07-Nov-19 10:19 40.316027 -111.949189 173 11838ft 173kts
07-Nov-19 10:20 40.269376 -111.945405 203 12134ft 178kts
07-Nov-19 10:21 40.223209 -111.973415 196 12021ft 194kts
07-Nov-19 10:22 40.173176 -111.999791 203 12023ft 195kts
07-Nov-19 10:23 40.123716 -112.029511 202 12024ft 195kts
07-Nov-19 10:24 40.074345 -112.058682 202 12024ft 195kts
07-Nov-19 10:25 40.024710 -112.087898 202 12024ft 195kts
07-Nov-19 10:26 39.975084 -112.116635 202 12025ft 195kts
07-Nov-19 10:27 39.925568 -112.145496 202 12025ft 195kts
07-Nov-19 10:28 39.875680 -112.174559 202 12022ft 195kts
07-Nov-19 10:29 39.826207 -112.203365 202 12022ft 195kts
07-Nov-19 10:30 39.776672 -112.232158 202 12024ft 195kts
07-Nov-19 10:31 39.726930 -112.261029 202 12023ft 195kts
07-Nov-19 10:32 39.677223 -112.289681 203 12062ft 194kts
07-Nov-19 10:33 39.627998 -112.318247 202 12052ft 196kts
07-Nov-19 10:34 39.577947 -112.346750 200 12010ft 196kts
07-Nov-19 10:35 39.526338 -112.369756 193 11469ft 197kts
07-Nov-19 10:36 39.472937 -112.388035 194 10778ft 198kts
07-Nov-19 10:37 39.420166 -112.410190 195 10050ft 199kts
07-Nov-19 10:38 39.368497 -112.431124 196 9377ft 189kts
07-Nov-19 10:39 39.318307 -112.451688 194 8467ft 185kts
07-Nov-19 10:40 39.268692 -112.470913 196 7589ft 182kts
07-Nov-19 10:41 39.222457 -112.488405 193 7644ft 170kts
07-Nov-19 10:42 39.176226 -112.499938 172 7548ft 171kts
07-Nov-19 10:43 39.128299 -112.496086 170 7402ft 171kts
07-Nov-19 10:44 39.115550 -112.462349 21 7424ft 153kts
07-Nov-19 10:45 39.147185 -112.496471 312 7448ft 163kts
07-Nov-19 10:46 39.187523 -112.509199 1 7476ft 149kts
07-Nov-19 10:47 39.228416 -112.503532 358 7408ft 144kts
07-Nov-19 10:48 39.263309 -112.503346 7 6952ft 126kts
07-Nov-19 10:49 39.297537 -112.502903 2 6367ft 127kts
07-Nov-19 10:50 39.331903 -112.502722 2 5651ft 128kts
07-Nov-19 10:51 39.366123 -112.502291 3 4967ft 127kts
07-Nov-19 10:52 39.386778 -112.502193 0 4762ft 33kts
07-Nov-19 10:53 39.390487 -112.503034 223 4762ft 8kts
07-Nov-19 10:54 39.389163 -112.504770 224 4762ft 18kts
07-Nov-19 10:55 39.385383 -112.509685 225 4762ft 18kts
07-Nov-19 10:56 39.385316 -112.512118 40 4762ft 0kts
07-Nov-19 10:57 39.385316 -112.512118 40 4762ft 0kts
07-Nov-19 10:58 39.385316 -112.512118 40 4762ft 0kts
07-Nov-19 10:59 39.385316 -112.512118 40 4762ft 0kts
07-Nov-19 11:00 39.385316 -112.512118 40 4762ft 0kts
07-Nov-19 11:01 39.385316 -112.512118 40 4762ft 0kts
07-Nov-19 11:02 39.385316 -112.512118 40 4762ft 0kts
07-Nov-19 11:03 39.385316 -112.512118 40 4762ft 0kts
07-Nov-19 11:04 39.385316 -112.512118 40 4762ft 0kts
07-Nov-19 11:05 39.385316 -112.512118 40 4762ft 0kts
07-Nov-19 11:06 39.385316 -112.512118 40 4762ft 0kts

Navigation Log

Ident Type
Flight plan parsing failed, navigation log unavailable